Achilles, Virginia
Current Conditions -  °F | °C
As of 4:54 AM on Wednesday 26 Nov 2014 (Local Time) from KPHF Reporting Station
Moderate Rain Moderate Rain  
Wind Chill:   Ceiling: 800
Heat Index:   Visibility: 1.7mi
Dew Point:   Wind: 21mph
Humidity: 83%   Direction: 50°NE
Pressure: 30"   Gusts: 32mph
Location:  37.28°N, 76.44°W
Report Text: KPHF 260954Z 05018G28KT 1 3/4SM RA BKN008 BKN012 OVC018 09/06 A3000 RMK AO2 PK WND 06028/0954 SLP158 P0010 T00890061
Loading
Personal Weather Stations






























Interactive Weather Map New forecast layout! Learn more

10-Day Weather Forecast

Advertisements
Track Severe Weather on mobile